createdAt,value
2019-01-22T00:00:51.299Z,32.43
2019-01-22T00:03:20.658Z,32.43
2019-01-22T00:05:50.038Z,26.83
2019-01-22T00:08:19.396Z,30.73
2019-01-22T00:10:48.824Z,31.07
2019-01-22T00:13:18.112Z,33.33
2019-01-22T00:15:47.471Z,28.83
2019-01-22T00:18:16.800Z,28.50
2019-01-22T00:20:46.161Z,31.67
2019-01-22T00:23:15.481Z,33.07
2019-01-22T00:25:44.834Z,31.10
2019-01-22T00:28:14.096Z,26.80
2019-01-22T00:30:43.493Z,34.90
2019-01-22T00:33:12.839Z,29.57
2019-01-22T00:35:42.209Z,32.63
2019-01-22T00:38:11.936Z,30.57
2019-01-22T00:40:41.283Z,28.20
2019-01-22T00:43:10.657Z,26.90
2019-01-22T00:45:40.025Z,33.27
2019-01-22T00:48:09.375Z,32.13
2019-01-22T00:50:38.747Z,31.27
2019-01-22T00:53:10.166Z,31.20
2019-01-22T00:55:39.054Z,30.00
2019-01-22T00:58:08.335Z,28.40
2019-01-22T01:00:37.714Z,31.07
2019-01-22T01:03:07.054Z,32.45
2019-01-22T01:05:36.355Z,31.63
2019-01-22T01:08:05.996Z,30.27
2019-01-22T01:10:35.467Z,29.47
2019-01-22T01:13:05.338Z,31.83
2019-01-22T01:15:34.688Z,31.80
2019-01-22T01:18:04.630Z,30.13
2019-01-22T01:20:34.024Z,33.60
2019-01-22T01:23:03.283Z,30.83
2019-01-22T01:25:32.734Z,31.97
2019-01-22T01:28:02.118Z,28.43
2019-01-22T01:30:31.480Z,26.73
2019-01-22T01:33:00.831Z,26.57
2019-01-22T01:35:30.207Z,30.03
2019-01-22T01:37:59.547Z,30.92
2019-01-22T01:40:28.916Z,28.17
2019-01-22T01:42:58.283Z,34.90
2019-01-22T01:45:27.939Z,32.05
2019-01-22T01:47:57.277Z,30.13
2019-01-22T01:50:27.028Z,33.23
2019-01-22T01:52:56.383Z,30.80
2019-01-22T01:55:25.837Z,31.87
2019-01-22T01:57:55.193Z,30.20
2019-01-22T02:00:23.912Z,32.67
2019-01-22T02:02:53.327Z,32.13
2019-01-22T02:05:22.675Z,29.27
2019-01-22T02:07:52.078Z,30.55
2019-01-22T02:10:23.605Z,28.63
2019-01-22T02:12:58.645Z,34.05
2019-01-22T02:15:35.654Z,36.20
2019-01-22T02:18:26.040Z,31.68
2019-01-22T02:21:51.676Z,31.57
2019-01-22T02:24:52.732Z,31.02
2019-01-22T02:27:59.493Z,33.05
2019-01-22T02:31:15.226Z,30.17
2019-01-22T02:34:26.861Z,35.23
2019-01-22T02:37:33.787Z,33.58
2019-01-22T02:40:15.373Z,36.00
2019-01-22T02:43:13.091Z,33.85
2019-01-22T02:46:18.399Z,34.40
2019-01-22T02:49:28.189Z,36.15
2019-01-22T02:52:18.127Z,39.03
2019-01-22T02:55:00.890Z,36.55
2019-01-22T02:58:15.992Z,33.02
2019-01-22T03:01:28.052Z,35.25
2019-01-22T03:04:27.922Z,40.43
2019-01-22T03:07:17.945Z,36.03
2019-01-22T03:10:34.840Z,34.90
2019-01-22T03:13:42.819Z,38.90
2019-01-22T03:16:57.406Z,38.38
2019-01-22T03:20:26.341Z,36.75
2019-01-22T03:23:33.263Z,34.88
2019-01-22T03:26:25.558Z,33.10
2019-01-22T03:29:32.951Z,38.08
2019-01-22T03:32:21.144Z,41.92
2019-01-22T03:35:39.759Z,38.13
2019-01-22T03:38:26.202Z,39.40
2019-01-22T03:41:32.164Z,38.02
2019-01-22T03:44:35.552Z,39.67
2019-01-22T03:47:36.849Z,42.60
2019-01-22T03:50:22.423Z,45.80
2019-01-22T03:53:13.079Z,42.27
2019-01-22T03:56:19.586Z,38.75
2019-01-22T03:58:48.917Z,46.08
2019-01-22T04:01:22.259Z,47.55
2019-01-22T04:03:51.603Z,43.95
2019-01-22T04:06:51.953Z,46.23
2019-01-22T04:09:26.250Z,44.55
2019-01-22T04:11:55.660Z,48.87
2019-01-22T04:14:25.052Z,46.58
2019-01-22T04:16:54.597Z,44.63
2019-01-22T04:19:27.189Z,44.75
2019-01-22T04:21:56.627Z,44.35
2019-01-22T04:24:50.042Z,49.45
2019-01-22T04:27:56.206Z,44.35
2019-01-22T04:30:55.539Z,48.13
2019-01-22T04:34:12.998Z,42.38
2019-01-22T04:37:30.573Z,39.25
2019-01-22T04:40:20.594Z,43.65
2019-01-22T04:43:14.256Z,46.10
2019-01-22T04:45:58.298Z,48.48
2019-01-22T04:48:54.008Z,43.95
2019-01-22T04:51:54.805Z,41.92
2019-01-22T04:54:51.682Z,47.98
2019-01-22T04:57:52.955Z,44.50
2019-01-22T05:00:52.501Z,44.08
2019-01-22T05:04:12.080Z,44.88
2019-01-22T05:07:18.267Z,49.05
2019-01-22T05:10:14.784Z,41.20
2019-01-22T05:13:14.227Z,43.50
2019-01-22T05:16:16.399Z,50.58
2019-01-22T05:19:22.703Z,45.10
2019-01-22T05:22:33.531Z,84.35
2019-01-22T05:25:34.352Z,55.08
2019-01-22T05:28:41.258Z,82.57
2019-01-22T05:31:35.736Z,73.15
2019-01-22T05:34:43.290Z,63.90
2019-01-22T05:37:44.039Z,116.80
2019-01-22T05:41:09.594Z,67.42
2019-01-22T05:44:16.059Z,60.08
2019-01-22T05:47:31.403Z,71.22
2019-01-22T05:50:50.903Z,85.25
2019-01-22T05:53:41.029Z,63.17
2019-01-22T05:56:46.509Z,69.60
2019-01-22T06:00:00.714Z,67.97
2019-01-22T06:02:45.792Z,63.42
2019-01-22T06:05:59.909Z,70.95
2019-01-22T06:08:58.617Z,86.87
2019-01-22T06:11:52.233Z,73.12
2019-01-22T06:15:05.703Z,76.55
2019-01-22T06:18:16.964Z,63.68
2019-01-22T06:21:06.383Z,72.00
2019-01-22T06:24:20.659Z,63.25
2019-01-22T06:27:14.486Z,70.42
2019-01-22T06:30:05.814Z,67.78
2019-01-22T06:32:49.191Z,59.25
2019-01-22T06:35:32.902Z,69.40
2019-01-22T06:38:34.698Z,93.70
2019-01-22T06:41:20.098Z,81.32
2019-01-22T06:44:29.796Z,62.70
2019-01-22T06:47:10.328Z,93.75
2019-01-22T06:50:01.338Z,68.00
2019-01-22T06:53:25.404Z,99.75
2019-01-22T06:56:49.470Z,76.82
2019-01-22T06:59:38.942Z,77.78
2019-01-22T07:02:31.804Z,64.35
2019-01-22T07:05:16.917Z,63.17
2019-01-22T07:08:25.611Z,81.08
2019-01-22T07:11:36.179Z,84.90
2019-01-22T07:14:25.831Z,72.42
2019-01-22T07:17:09.086Z,65.85
2019-01-22T07:19:58.894Z,102.95
2019-01-22T07:22:50.731Z,293.27
2019-01-22T07:26:10.133Z,301.27
2019-01-22T07:28:56.032Z,408.40
2019-01-22T07:31:41.963Z,263.02
2019-01-22T07:34:57.256Z,203.77
2019-01-22T07:38:03.559Z,118.55
2019-01-22T07:41:15.924Z,136.18
2019-01-22T07:44:41.464Z,90.32
2019-01-22T07:47:34.582Z,181.00
2019-01-22T07:50:38.579Z,90.57
2019-01-22T07:53:32.776Z,92.88
2019-01-22T07:56:34.036Z,95.80
2019-01-22T07:59:32.699Z,98.25
2019-01-22T08:02:50.934Z,129.90
2019-01-22T08:05:58.253Z,84.42
2019-01-22T08:09:02.020Z,79.12
2019-01-22T08:12:27.536Z,132.75
2019-01-22T08:15:45.979Z,80.57
2019-01-22T08:18:51.216Z,99.13
2019-01-22T08:21:37.613Z,76.45
2019-01-22T08:24:48.385Z,82.60
2019-01-22T08:27:33.281Z,79.15
2019-01-22T08:30:38.103Z,95.40
2019-01-22T08:33:37.009Z,134.27
2019-01-22T08:36:53.479Z,85.97
2019-01-22T08:39:55.026Z,181.72
2019-01-22T08:43:18.321Z,96.67
2019-01-22T08:46:38.000Z,130.25
2019-01-22T08:50:01.934Z,83.20
2019-01-22T08:52:42.852Z,77.12
2019-01-22T08:55:58.167Z,76.22
2019-01-22T08:59:02.018Z,84.35
2019-01-22T09:02:22.297Z,85.72
2019-01-22T09:05:15.116Z,80.75
2019-01-22T09:08:24.726Z,79.12
2019-01-22T09:11:44.271Z,71.67
2019-01-22T09:14:37.981Z,66.37
2019-01-22T09:17:30.110Z,73.57
2019-01-22T09:20:41.984Z,78.07
2019-01-22T09:23:53.061Z,71.02
2019-01-22T09:26:34.776Z,74.92
2019-01-22T09:29:40.940Z,78.35
2019-01-22T09:32:36.735Z,87.22
2019-01-22T09:35:47.245Z,79.30
2019-01-22T09:38:16.656Z,78.90
2019-01-22T09:40:45.966Z,72.60
2019-01-22T09:43:15.298Z,100.72
2019-01-22T09:45:44.655Z,90.03
2019-01-22T09:48:13.928Z,88.30
2019-01-22T09:50:43.523Z,115.88
2019-01-22T09:53:12.879Z,167.45
2019-01-22T09:55:42.178Z,101.50
2019-01-22T09:58:11.477Z,87.70
2019-01-22T10:00:40.967Z,102.15
2019-01-22T10:03:13.258Z,98.10
2019-01-22T10:05:42.895Z,84.85
2019-01-22T10:08:12.487Z,82.33
2019-01-22T10:10:41.864Z,89.37
2019-01-22T10:13:11.217Z,86.90
2019-01-22T10:15:43.522Z,81.08
2019-01-22T10:18:13.124Z,86.00
2019-01-22T10:20:42.664Z,78.57
2019-01-22T10:23:14.089Z,72.08
2019-01-22T10:25:43.785Z,75.52
2019-01-22T10:28:13.094Z,73.45
2019-01-22T10:30:42.987Z,75.95
2019-01-22T10:33:13.215Z,78.87
2019-01-22T10:35:44.984Z,77.22
2019-01-22T10:38:21.283Z,76.35
2019-01-22T10:40:55.458Z,77.08
2019-01-22T10:43:31.963Z,80.90
2019-01-22T10:46:02.816Z,79.03
2019-01-22T10:48:34.978Z,76.57
2019-01-22T10:51:05.872Z,79.80
2019-01-22T10:53:39.144Z,86.60
2019-01-22T10:56:21.611Z,81.03
2019-01-22T10:58:52.866Z,81.30
2019-01-22T11:01:23.923Z,48.63
2019-01-22T11:03:55.539Z,70.70
2019-01-22T11:06:27.218Z,66.12
2019-01-22T11:08:57.086Z,56.95
2019-01-22T11:11:26.806Z,65.52
2019-01-22T11:13:57.263Z,60.12
2019-01-22T11:16:29.333Z,59.23
2019-01-22T11:18:59.879Z,66.28
2019-01-22T11:21:33.015Z,69.53
2019-01-22T11:24:04.258Z,63.33
2019-01-22T11:26:38.474Z,64.95
2019-01-22T11:29:10.968Z,62.08
2019-01-22T11:31:43.084Z,60.65
2019-01-22T11:34:17.503Z,64.65
2019-01-22T11:36:53.815Z,57.65
2019-01-22T11:39:33.972Z,61.40
2019-01-22T11:42:07.426Z,57.05
2019-01-22T11:44:43.221Z,53.52
2019-01-22T11:47:18.341Z,61.30
2019-01-22T11:49:53.857Z,62.53
2019-01-22T11:52:26.560Z,61.13
2019-01-22T11:54:59.577Z,65.85
2019-01-22T11:57:36.708Z,55.98
2019-01-22T12:00:14.268Z,62.83
2019-01-22T12:02:47.187Z,59.33
2019-01-22T12:05:18.122Z,51.45
2019-01-22T12:07:55.420Z,61.23
2019-01-22T12:10:25.422Z,58.08
2019-01-22T12:12:58.347Z,58.13
2019-01-22T12:15:28.942Z,55.52
2019-01-22T12:18:01.764Z,53.48
2019-01-22T12:20:37.705Z,59.18
2019-01-22T12:23:07.832Z,53.13
2019-01-22T12:25:37.492Z,61.73
2019-01-22T12:28:07.565Z,63.85
2019-01-22T12:30:37.993Z,60.60
2019-01-22T12:33:09.110Z,63.02
2019-01-22T12:35:38.881Z,51.92
2019-01-22T12:38:11.727Z,56.40
2019-01-22T12:40:47.701Z,50.03
2019-01-22T12:43:18.414Z,52.50
2019-01-22T12:45:48.902Z,58.55
2019-01-22T12:48:20.806Z,47.05
2019-01-22T12:50:51.169Z,53.60
2019-01-22T12:53:27.718Z,48.87
2019-01-22T12:56:04.495Z,50.43
2019-01-22T12:58:32.390Z,49.85
2019-01-22T13:01:08.784Z,51.60
2019-01-22T13:03:43.323Z,51.88
2019-01-22T13:06:16.050Z,56.92
2019-01-22T13:08:50.586Z,56.63
2019-01-22T13:11:21.377Z,55.05
2019-01-22T13:13:51.439Z,55.10
2019-01-22T13:16:20.945Z,57.33
2019-01-22T13:18:50.476Z,59.85
2019-01-22T13:21:20.740Z,56.98
2019-01-22T13:23:52.944Z,66.87
2019-01-22T13:26:26.606Z,61.53
2019-01-22T13:28:58.437Z,64.05
2019-01-22T13:31:32.550Z,56.45
2019-01-22T13:34:04.263Z,66.90
2019-01-22T13:36:37.781Z,62.45
2019-01-22T13:39:15.960Z,76.40
2019-01-22T13:42:00.606Z,63.95
2019-01-22T13:44:34.542Z,69.05
2019-01-22T13:47:07.607Z,66.07
2019-01-22T13:49:42.411Z,74.27
2019-01-22T13:52:13.260Z,78.17
2019-01-22T13:54:46.705Z,97.73
2019-01-22T13:57:17.648Z,68.60
2019-01-22T13:59:48.929Z,53.38
2019-01-22T14:02:19.447Z,75.08
2019-01-22T14:04:53.548Z,69.82
2019-01-22T14:07:27.676Z,71.97
2019-01-22T14:09:59.391Z,78.07
2019-01-22T14:12:31.823Z,80.57
2019-01-22T14:15:06.130Z,73.70
2019-01-22T14:17:40.603Z,71.12
2019-01-22T14:20:14.211Z,81.30
2019-01-22T14:22:46.029Z,72.17
2019-01-22T14:25:17.253Z,78.00
2019-01-22T14:27:53.548Z,82.15
2019-01-22T14:30:29.846Z,79.42
2019-01-22T14:33:00.851Z,78.35
2019-01-22T14:35:34.381Z,86.47
2019-01-22T14:38:05.421Z,78.87
2019-01-22T14:40:38.917Z,78.05
2019-01-22T14:43:09.671Z,75.47
2019-01-22T14:45:42.172Z,77.97
2019-01-22T14:48:11.628Z,85.47
2019-01-22T14:50:41.145Z,84.32
2019-01-22T14:53:10.534Z,75.45
2019-01-22T14:55:40.051Z,77.85
2019-01-22T14:58:09.449Z,78.52
2019-01-22T15:00:38.931Z,74.87
2019-01-22T15:03:08.437Z,76.75
2019-01-22T15:05:37.886Z,79.50
2019-01-22T15:08:07.419Z,80.70
2019-01-22T15:10:37.013Z,68.10
2019-01-22T15:13:06.705Z,83.50
2019-01-22T15:15:36.005Z,88.40
2019-01-22T15:18:05.957Z,81.10
2019-01-22T15:20:35.537Z,86.78
2019-01-22T15:23:04.938Z,90.32
2019-01-22T15:25:34.663Z,87.88
2019-01-22T15:28:04.155Z,86.00
2019-01-22T15:30:36.078Z,89.22
2019-01-22T15:33:06.683Z,92.08
2019-01-22T15:35:36.154Z,87.35
2019-01-22T15:38:06.046Z,90.97
2019-01-22T15:40:35.999Z,87.35
2019-01-22T15:43:05.543Z,82.60
2019-01-22T15:45:35.114Z,90.30
2019-01-22T15:48:05.197Z,90.15
2019-01-22T15:50:34.650Z,77.72
2019-01-22T15:53:04.069Z,90.72
2019-01-22T15:55:37.009Z,94.37
2019-01-22T15:58:07.235Z,86.75
2019-01-22T16:00:36.558Z,90.40
2019-01-22T16:03:06.475Z,85.57
2019-01-22T16:05:36.108Z,85.10
2019-01-22T16:08:06.646Z,79.40
2019-01-22T16:10:36.453Z,91.67
2019-01-22T16:13:06.995Z,91.37
2019-01-22T16:15:36.551Z,89.67
2019-01-22T16:18:06.388Z,87.75
2019-01-22T16:20:35.886Z,90.47
2019-01-22T16:23:05.538Z,80.53
2019-01-22T16:25:35.066Z,78.65
2019-01-22T16:28:06.558Z,81.10
2019-01-22T16:30:35.751Z,89.97
2019-01-22T16:33:05.320Z,88.40
2019-01-22T16:35:34.612Z,81.47
2019-01-22T16:38:04.719Z,92.97
2019-01-22T16:40:34.623Z,105.35
2019-01-22T16:43:04.725Z,86.37
2019-01-22T16:45:35.868Z,81.72
2019-01-22T16:48:05.991Z,81.67
2019-01-22T16:50:44.546Z,84.85
2019-01-22T16:53:19.757Z,85.72
2019-01-22T16:55:49.199Z,82.55
2019-01-22T16:58:18.813Z,90.57
2019-01-22T17:00:48.339Z,94.07
2019-01-22T17:03:17.848Z,92.53
2019-01-22T17:05:47.724Z,162.37
2019-01-22T17:08:17.332Z,89.85
2019-01-22T17:10:46.927Z,84.97
2019-01-22T17:13:16.464Z,87.88
2019-01-22T17:15:45.972Z,84.52
2019-01-22T17:18:15.406Z,85.00
2019-01-22T17:20:48.039Z,147.13
2019-01-22T17:23:17.207Z,117.50
2019-01-22T17:25:46.734Z,96.53
2019-01-22T17:28:16.188Z,87.10
2019-01-22T17:30:45.501Z,81.37
2019-01-22T17:33:20.096Z,88.95
2019-01-22T17:35:50.893Z,85.70
2019-01-22T17:38:21.652Z,89.35
2019-01-22T17:40:51.235Z,94.83
2019-01-22T17:43:20.773Z,94.87
2019-01-22T17:45:50.332Z,90.47
2019-01-22T17:48:19.783Z,81.97
2019-01-22T17:50:49.433Z,86.37
2019-01-22T17:53:19.147Z,82.33
2019-01-22T17:55:48.435Z,89.83
2019-01-22T17:58:17.822Z,85.10
2019-01-22T18:00:47.159Z,85.70
2019-01-22T18:03:16.445Z,81.28
2019-01-22T18:05:45.714Z,84.83
2019-01-22T18:08:16.096Z,88.07
2019-01-22T18:10:45.370Z,88.65
2019-01-22T18:13:14.702Z,81.78
2019-01-22T18:15:43.979Z,87.50
2019-01-22T18:18:13.301Z,91.03
2019-01-22T18:20:42.650Z,89.77
2019-01-22T18:23:12.027Z,80.32
2019-01-22T18:25:41.395Z,87.12
2019-01-22T18:28:10.693Z,79.63
2019-01-22T18:30:39.967Z,76.47
2019-01-22T18:33:09.367Z,83.62
2019-01-22T18:35:41.838Z,77.05
2019-01-22T18:38:17.053Z,82.08
2019-01-22T18:40:46.498Z,77.60
2019-01-22T18:43:15.876Z,78.47
2019-01-22T18:45:45.319Z,67.05
2019-01-22T18:48:14.634Z,73.60
2019-01-22T18:50:50.796Z,74.50
2019-01-22T18:53:20.101Z,76.47
2019-01-22T18:55:49.539Z,78.60
2019-01-22T18:58:18.930Z,74.07
2019-01-22T19:00:56.306Z,68.52
2019-01-22T19:03:25.579Z,75.90
2019-01-22T19:05:54.926Z,72.10
2019-01-22T19:08:24.136Z,70.70
2019-01-22T19:10:56.135Z,72.65
2019-01-22T19:13:25.315Z,67.90
2019-01-22T19:15:54.871Z,67.32
2019-01-22T19:18:24.109Z,71.42
2019-01-22T19:20:53.407Z,72.17
2019-01-22T19:23:27.046Z,67.60
2019-01-22T19:25:56.352Z,61.68
2019-01-22T19:28:25.668Z,67.15
2019-01-22T19:30:55.861Z,58.70
2019-01-22T19:33:25.162Z,55.67
2019-01-22T19:35:54.495Z,57.25
2019-01-22T19:38:23.751Z,63.33
2019-01-22T19:40:53.096Z,61.00
2019-01-22T19:43:22.271Z,86.87
2019-01-22T19:45:51.786Z,85.33
2019-01-22T19:48:21.073Z,57.63
2019-01-22T19:50:50.466Z,54.23
2019-01-22T19:53:19.759Z,47.07
2019-01-22T19:55:49.566Z,50.50
2019-01-22T19:58:18.885Z,49.03
2019-01-22T20:00:49.415Z,51.07
2019-01-22T20:03:18.693Z,45.35
2019-01-22T20:05:48.410Z,49.08
2019-01-22T20:08:17.718Z,46.33
2019-01-22T20:10:46.987Z,47.30
2019-01-22T20:13:18.289Z,45.33
2019-01-22T20:15:47.840Z,47.40
2019-01-22T20:18:17.100Z,51.37
2019-01-22T20:20:46.380Z,46.07
2019-01-22T20:23:15.690Z,43.02
2019-01-22T20:25:44.959Z,49.50
2019-01-22T20:28:14.268Z,48.50
2019-01-22T20:30:48.279Z,47.23
2019-01-22T20:33:14.977Z,46.25
2019-01-22T20:35:44.339Z,48.55
2019-01-22T20:38:13.624Z,44.37
2019-01-22T20:40:42.899Z,41.55
2019-01-22T20:43:12.159Z,38.48
2019-01-22T20:45:41.518Z,38.97
2019-01-22T20:48:29.879Z,42.10
2019-01-22T20:50:59.239Z,44.58
2019-01-22T20:53:28.507Z,47.67
2019-01-22T20:55:57.819Z,42.93
2019-01-22T20:58:27.154Z,51.33
2019-01-22T21:00:56.688Z,53.90
2019-01-22T21:03:25.938Z,49.67
2019-01-22T21:05:55.380Z,50.10
2019-01-22T21:08:24.665Z,51.33
2019-01-22T21:10:55.610Z,48.15
2019-01-22T21:13:24.900Z,48.28
2019-01-22T21:15:54.157Z,50.50
2019-01-22T21:18:23.427Z,49.67
2019-01-22T21:20:52.742Z,46.93
2019-01-22T21:23:22.100Z,51.07
2019-01-22T21:25:51.344Z,49.10
2019-01-22T21:28:20.679Z,50.00
2019-01-22T21:30:49.948Z,51.88
2019-01-22T21:33:19.313Z,49.42
2019-01-22T21:35:48.544Z,48.97
2019-01-22T21:38:17.819Z,49.53
2019-01-22T21:40:47.071Z,49.30
2019-01-22T21:43:16.442Z,47.93
2019-01-22T21:45:45.723Z,54.48
2019-01-22T21:48:15.077Z,50.23
2019-01-22T21:50:44.343Z,47.20
2019-01-22T21:53:13.679Z,48.07
2019-01-22T21:55:43.025Z,51.80
2019-01-22T21:58:12.267Z,46.70
2019-01-22T22:00:41.543Z,49.40
2019-01-22T22:03:10.826Z,48.43
2019-01-22T22:05:40.165Z,47.70
2019-01-22T22:08:09.550Z,50.10
2019-01-22T22:10:39.403Z,49.00
2019-01-22T22:13:08.754Z,51.60
2019-01-22T22:15:38.139Z,51.13
2019-01-22T22:18:07.940Z,52.05
2019-01-22T22:20:42.284Z,49.98
2019-01-22T22:23:08.715Z,44.87
2019-01-22T22:25:38.478Z,47.13
2019-01-22T22:28:08.035Z,44.53
2019-01-22T22:30:39.490Z,47.88
2019-01-22T22:33:08.770Z,51.00
2019-01-22T22:35:38.024Z,47.33
2019-01-22T22:38:10.412Z,48.77
2019-01-22T22:40:39.740Z,50.13
2019-01-22T22:43:09.097Z,42.23
2019-01-22T22:45:38.357Z,49.90
2019-01-22T22:48:07.619Z,49.05
2019-01-22T22:50:36.792Z,49.00
2019-01-22T22:53:06.105Z,53.58
2019-01-22T22:55:35.250Z,45.20
2019-01-22T22:58:04.473Z,49.95
2019-01-22T23:00:46.694Z,50.23
2019-01-22T23:03:16.306Z,52.45
2019-01-22T23:05:45.734Z,48.57
2019-01-22T23:08:15.029Z,48.55
2019-01-22T23:10:44.216Z,51.80
2019-01-22T23:13:13.474Z,50.85
2019-01-22T23:15:42.734Z,50.25
2019-01-22T23:18:12.206Z,59.48
2019-01-22T23:20:41.481Z,56.42
2019-01-22T23:23:10.760Z,56.58
2019-01-22T23:25:40.026Z,54.25
2019-01-22T23:28:09.332Z,56.20
2019-01-22T23:30:38.606Z,54.23
2019-01-22T23:33:07.779Z,55.08
2019-01-22T23:35:37.038Z,58.35
2019-01-22T23:38:06.308Z,58.87
2019-01-22T23:40:35.848Z,58.70
2019-01-22T23:43:05.239Z,64.22
2019-01-22T23:45:34.565Z,60.40
2019-01-22T23:48:04.160Z,54.53
2019-01-22T23:50:33.439Z,52.53
2019-01-22T23:53:02.788Z,57.67
2019-01-22T23:55:32.058Z,54.67
2019-01-22T23:58:01.374Z,54.88
